Time;durP1;ratioP1;P1;durP2;ratioP2;P2;SDS_P1;SDS_P2;PMS_P1;PMS_P2;Temp;Humidity;BMP_temperature;BMP_pressure;BME280_temperature;BME280_humidity;BME280_pressure;Samples;Min_cycle;Max_cycle;Signal;HPM_P1;HPM_P2
2023/07/11 00:00:52;;;;;;;7.60;5.00;;;;;;;20.29;84.54;100541.66;5010494;28;20050;-79
2023/07/11 00:03:21;;;;;;;8.85;4.70;;;;;;;20.68;83.60;100611.88;4993708;28;20097;-79
2023/07/11 00:06:07;;;;;;;7.30;4.47;;;;;;;20.62;85.10;100604.31;4982646;28;20310;-79
2023/07/11 00:08:36;;;;;;;8.18;4.72;;;;;;;20.49;83.12;100572.22;4989365;28;20133;-80
2023/07/11 00:11:06;;;;;;;7.33;5.00;;;;;;;20.56;86.08;100586.88;4992061;28;20419;-79
2023/07/11 00:13:33;;;;;;;9.18;5.05;;;;;;;20.57;84.95;100599.34;5008760;28;20108;-79
2023/07/11 00:16:04;;;;;;;8.55;4.43;;;;;;;20.43;83.41;100561.16;5009046;28;20074;-79
2023/07/11 00:18:31;;;;;;;8.65;5.00;;;;;;;20.47;82.36;100558.06;4988901;28;20043;-78
2023/07/11 00:20:58;;;;;;;8.57;4.90;;;;;;;20.65;82.16;100577.16;4995847;28;20088;-78
2023/07/11 00:23:25;;;;;;;7.95;5.03;;;;;;;20.48;81.23;100549.00;4990859;28;20122;-77
2023/07/11 00:25:52;;;;;;;7.80;5.10;;;;;;;20.70;81.63;100596.44;4986527;28;20100;-79
2023/07/11 00:28:19;;;;;;;7.20;4.18;;;;;;;20.74;80.40;100586.28;4992382;28;20207;-78
2023/07/11 00:30:47;;;;;;;7.13;3.95;;;;;;;20.76;81.69;100592.41;4987816;28;20591;-77
2023/07/11 00:33:14;;;;;;;6.90;4.75;;;;;;;20.81;79.68;100587.44;4990352;28;20047;-79
2023/07/11 00:35:44;;;;;;;8.05;4.30;;;;;;;20.83;79.57;100585.47;4987921;28;20495;-78
2023/07/11 00:38:12;;;;;;;6.97;4.05;;;;;;;20.90;78.91;100584.81;4991588;28;20571;-78
2023/07/11 00:40:44;;;;;;;6.53;4.25;;;;;;;20.75;78.54;100545.78;5002351;28;20053;-78
2023/07/11 00:43:13;;;;;;;6.90;4.03;;;;;;;20.90;77.79;100546.28;4992515;28;20575;-80
2023/07/11 00:45:49;;;;;;;5.80;3.72;;;;;;;21.11;77.36;100576.69;4999023;28;20048;-78
2023/07/11 00:48:17;;;;;;;6.55;3.75;;;;;;;21.03;76.77;100554.97;4999963;28;20042;-79
2023/07/11 00:50:44;;;;;;;7.57;4.15;;;;;;;21.20;76.43;100584.00;5003100;28;20046;-78
2023/07/11 00:53:12;;;;;;;6.03;4.10;;;;;;;20.95;76.57;100536.81;5000108;28;20145;-76
2023/07/11 00:55:39;;;;;;;8.70;4.53;;;;;;;20.99;77.13;100556.22;4996600;28;20062;-76
2023/07/11 00:58:06;;;;;;;5.38;3.55;;;;;;;21.11;76.99;100579.38;4995774;28;20137;-78
2023/07/11 01:00:33;;;;;;;7.25;3.70;;;;;;;21.05;77.11;100571.00;4994549;28;20054;-80
2023/07/11 01:03:00;;;;;;;5.55;3.53;;;;;;;21.02;77.31;100572.97;5013255;28;20061;-79
2023/07/11 01:05:27;;;;;;;6.38;4.20;;;;;;;20.92;77.43;100560.47;5004355;28;20112;-78
2023/07/11 01:07:53;;;;;;;6.13;3.70;;;;;;;20.80;77.64;100548.91;4995369;28;20042;-79
2023/07/11 01:10:20;;;;;;;6.65;4.07;;;;;;;20.79;78.78;100557.97;4995098;28;20149;-77
2023/07/11 01:12:48;;;;;;;8.65;4.07;;;;;;;20.79;79.25;100565.19;4991404;28;20424;-77
2023/07/11 01:15:16;;;;;;;4.32;3.55;;;;;;;20.81;79.54;100569.47;4986085;28;20066;-78
2023/07/11 01:17:43;;;;;;;7.18;3.92;;;;;;;20.82;79.31;100567.63;4992198;28;20161;-80
2023/07/11 01:20:10;;;;;;;7.90;4.15;;;;;;;20.83;79.10;100563.94;4992490;28;20133;-77
2023/07/11 01:22:39;;;;;;;5.90;3.60;;;;;;;20.69;79.78;100559.75;4994315;28;20430;-77
2023/07/11 01:25:14;;;;;;;5.00;3.50;;;;;;;20.71;79.96;100567.72;4984342;28;20042;-78
2023/07/11 01:27:46;;;;;;;6.28;3.50;;;;;;;20.70;80.26;100557.94;5003657;28;20133;-79
2023/07/11 01:30:21;;;;;;;5.35;3.35;;;;;;;20.73;80.43;100557.66;4995633;28;20064;-79
2023/07/11 01:32:48;;;;;;;6.20;3.78;;;;;;;20.43;79.92;100516.28;5006918;28;20074;-77
2023/07/11 01:35:15;;;;;;;5.80;3.45;;;;;;;20.63;79.87;100563.81;4986663;28;20058;-79
2023/07/11 01:37:42;;;;;;;11.40;4.00;;;;;;;20.62;80.88;100559.44;4983840;28;20050;-79
2023/07/11 01:40:09;;;;;;;6.53;3.90;;;;;;;20.67;80.14;100556.34;4985799;28;20692;-78
2023/07/11 01:42:36;;;;;;;4.97;3.58;;;;;;;20.64;80.21;100560.16;4996596;28;20072;-78
2023/07/11 01:45:03;;;;;;;5.47;3.60;;;;;;;20.62;80.78;100562.13;4986841;28;20053;-79
2023/07/11 01:47:30;;;;;;;5.30;3.63;;;;;;;20.51;80.87;100531.75;4992608;28;20065;-78
2023/07/11 01:49:57;;;;;;;6.45;3.60;;;;;;;20.50;80.44;100524.66;4988525;28;20073;-79
2023/07/11 01:52:24;;;;;;;6.72;3.92;;;;;;;20.29;81.36;100508.53;5000069;28;20054;-78
2023/07/11 01:54:51;;;;;;;7.00;3.58;;;;;;;20.38;81.92;100528.41;4992069;28;20038;-78
2023/07/11 01:57:18;;;;;;;6.57;3.63;;;;;;;20.41;82.51;100547.84;4993683;28;20129;-77
2023/07/11 01:59:45;;;;;;;6.82;3.70;;;;;;;20.35;83.38;100548.31;4990034;28;20113;-78
2023/07/11 02:02:12;;;;;;;4.90;3.42;;;;;;;20.27;83.73;100540.06;5026722;28;20111;-77
2023/07/11 02:04:39;;;;;;;4.88;3.90;;;;;;;20.39;83.95;100546.25;5011194;28;20050;-77
2023/07/11 02:07:06;;;;;;;6.10;4.07;;;;;;;20.22;83.81;100523.47;5007727;28;20054;-79
2023/07/11 02:09:33;;;;;;;7.70;3.83;;;;;;;20.43;84.09;100537.81;5019365;28;20130;-77
2023/07/11 02:11:59;;;;;;;5.22;3.80;;;;;;;20.41;83.83;100525.47;5009946;28;20043;-77
2023/07/11 02:14:26;;;;;;;6.97;3.95;;;;;;;20.36;84.03;100528.53;5007232;28;20034;-77
2023/07/11 02:16:53;;;;;;;6.97;3.53;;;;;;;20.29;84.24;100538.09;4998667;28;20105;-79
2023/07/11 02:19:22;;;;;;;6.70;4.28;;;;;;;20.22;85.47;100542.28;4978794;28;20050;-80
2023/07/11 02:21:49;;;;;;;8.88;3.80;;;;;;;20.05;86.51;100540.16;4987210;28;20069;-78
2023/07/11 02:24:17;;;;;;;5.38;3.72;;;;;;;20.11;87.32;100545.03;4988641;28;20038;-78
2023/07/11 02:26:44;;;;;;;4.78;3.72;;;;;;;20.04;87.41;100531.25;5000376;28;20500;-79
2023/07/11 02:29:12;;;;;;;7.03;3.85;;;;;;;20.11;87.21;100539.66;4980576;28;20144;-77
2023/07/11 02:31:39;;;;;;;6.75;3.70;;;;;;;20.05;87.71;100529.41;5005216;28;20511;-79
2023/07/11 02:34:06;;;;;;;5.28;3.78;;;;;;;20.08;87.74;100532.69;5006283;28;20046;-80
2023/07/11 02:36:33;;;;;;;6.35;4.03;;;;;;;20.06;87.54;100528.44;4987588;28;20051;-76
2023/07/11 02:39:00;;;;;;;7.30;3.97;;;;;;;20.04;87.66;100538.44;4986202;28;21027;-77
2023/07/11 02:41:27;;;;;;;7.32;3.95;;;;;;;19.99;87.79;100524.56;4997272;28;20180;-76
2023/07/11 02:43:53;;;;;;;6.13;4.00;;;;;;;19.93;88.22;100521.41;5000074;28;20046;-80
2023/07/11 02:46:20;;;;;;;5.25;3.75;;;;;;;20.03;88.86;100523.31;4994203;28;20056;-77
2023/07/11 02:48:47;;;;;;;4.00;3.35;;;;;;;20.04;88.85;100525.88;4978306;28;20057;-78
2023/07/11 02:51:14;;;;;;;5.13;3.45;;;;;;;20.02;88.02;100513.53;4983185;28;20504;-79
2023/07/11 02:53:41;;;;;;;5.93;3.95;;;;;;;20.06;87.52;100523.06;4987709;28;20118;-77
2023/07/11 02:56:07;;;;;;;7.03;4.18;;;;;;;20.02;88.02;100524.28;4986140;28;20061;-77
2023/07/11 02:58:34;;;;;;;6.22;4.28;;;;;;;19.91;88.75;100512.63;4998256;28;20054;-76
2023/07/11 03:01:02;;;;;;;7.63;3.95;;;;;;;19.92;88.71;100524.22;4982015;28;20048;-78
2023/07/11 03:03:29;;;;;;;7.70;4.53;;;;;;;19.79;88.38;100505.59;5001908;28;20046;-77
2023/07/11 03:05:56;;;;;;;4.28;3.58;;;;;;;19.70;89.13;100490.22;4986135;28;20100;-76
2023/07/11 03:08:23;;;;;;;6.35;3.88;;;;;;;19.68;89.79;100488.63;4985719;28;20430;-80
2023/07/11 03:10:50;;;;;;;7.00;4.10;;;;;;;19.79;90.12;100510.97;4986209;28;20046;-79
2023/07/11 03:13:18;;;;;;;4.65;4.13;;;;;;;19.80;90.47;100525.25;4987380;28;20149;-78
2023/07/11 03:15:45;;;;;;;7.25;4.50;;;;;;;19.77;90.64;100510.22;4982084;28;20047;-78
2023/07/11 03:18:13;;;;;;;8.45;5.13;;;;;;;19.77;90.75;100509.38;5003736;28;20069;-76
2023/07/11 03:20:41;;;;;;;5.22;3.78;;;;;;;19.72;90.97;100507.06;4978065;28;20065;-77
2023/07/11 03:23:11;;;;;;;6.32;4.13;;;;;;;19.73;91.43;100506.09;5004317;28;20526;-78
2023/07/11 03:25:38;;;;;;;6.60;4.28;;;;;;;19.73;91.96;100498.03;4989555;28;20466;-78
2023/07/11 03:28:05;;;;;;;7.57;4.75;;;;;;;19.70;92.28;100494.72;4988365;28;20050;-77
2023/07/11 03:30:32;;;;;;;10.23;4.75;;;;;;;19.54;92.99;100460.22;5000216;28;20066;-78
2023/07/11 03:32:59;;;;;;;9.98;4.50;;;;;;;19.52;92.01;100451.44;4996939;28;20050;-77
2023/07/11 03:35:26;;;;;;;6.97;4.50;;;;;;;19.45;92.00;100443.03;4992483;28;20067;-77
2023/07/11 03:37:53;;;;;;;6.88;4.82;;;;;;;19.75;92.05;100501.44;4987687;28;20057;-78
2023/07/11 03:40:19;;;;;;;8.23;4.47;;;;;;;19.70;91.95;100486.66;4983898;28;20618;-78
2023/07/11 03:42:46;;;;;;;7.88;4.38;;;;;;;19.79;91.92;100500.22;4989749;28;20196;-79
2023/07/11 03:45:13;;;;;;;7.15;4.65;;;;;;;19.51;91.44;100455.16;4988091;28;20067;-78
2023/07/11 03:47:40;;;;;;;5.57;4.45;;;;;;;19.70;91.01;100471.41;4986213;28;20113;-77
2023/07/11 03:50:07;;;;;;;6.90;4.30;;;;;;;19.84;90.95;100487.22;4980080;28;20057;-78
2023/07/11 03:52:34;;;;;;;9.95;4.78;;;;;;;19.84;90.49;100481.00;4988792;28;20050;-79
2023/07/11 03:55:01;;;;;;;5.80;4.68;;;;;;;19.73;90.34;100468.47;5005661;28;20050;-78
2023/07/11 03:57:27;;;;;;;8.57;4.47;;;;;;;19.48;90.82;100432.03;4996134;28;20049;-78
2023/07/11 03:59:54;;;;;;;7.18;4.85;;;;;;;19.76;90.44;100472.75;4985405;28;20066;-78
2023/07/11 04:02:20;;;;;;;6.05;4.85;;;;;;;19.69;90.09;100452.72;4989574;28;20054;-78
2023/07/11 04:04:47;;;;;;;8.35;4.95;;;;;;;19.71;90.29;100462.38;5011807;28;20154;-80
2023/07/11 04:07:14;;;;;;;6.22;4.63;;;;;;;19.68;90.18;100468.00;4984204;28;20046;-77
2023/07/11 04:09:41;;;;;;;8.80;5.07;;;;;;;19.61;91.04;100472.19;4987118;28;20054;-79
2023/07/11 04:12:08;;;;;;;6.68;4.88;;;;;;;19.41;91.49;100446.09;4987208;28;20785;-77
2023/07/11 04:14:35;;;;;;;7.78;5.18;;;;;;;19.48;92.03;100460.72;4982116;28;20158;-78
2023/07/11 04:17:02;;;;;;;7.95;4.88;;;;;;;19.57;93.24;100476.97;5006717;28;20050;-78
2023/07/11 04:19:29;;;;;;;6.40;4.60;;;;;;;19.52;92.86;100463.03;4979510;28;20051;-79
2023/07/11 04:21:56;;;;;;;8.63;5.20;;;;;;;19.43;92.61;100434.25;4986796;28;20177;-78
2023/07/11 04:24:22;;;;;;;6.30;4.38;;;;;;;19.67;92.00;100471.69;5002349;28;20058;-78
2023/07/11 04:26:49;;;;;;;7.10;4.80;;;;;;;19.67;92.42;100470.84;5005308;28;20042;-78
2023/07/11 04:29:15;;;;;;;8.25;5.20;;;;;;;19.71;92.10;100481.19;5002880;28;20098;-79
2023/07/11 04:31:42;;;;;;;6.85;4.85;;;;;;;19.50;92.67;100448.06;4994451;28;20038;-78
2023/07/11 04:34:09;;;;;;;7.90;4.97;;;;;;;19.68;92.34;100477.88;4989682;28;20066;-78
2023/07/11 04:36:35;;;;;;;6.88;5.40;;;;;;;19.67;91.99;100469.00;4990582;28;20081;-78
2023/07/11 04:39:03;;;;;;;7.53;4.95;;;;;;;19.77;91.06;100469.06;4990386;28;20141;-77
2023/07/11 04:41:29;;;;;;;7.43;4.85;;;;;;;19.86;91.32;100477.19;4981671;28;20050;-78
2023/07/11 04:43:56;;;;;;;8.45;5.55;;;;;;;19.79;91.69;100469.81;5003966;28;20092;-78
2023/07/11 04:46:23;;;;;;;8.85;5.20;;;;;;;19.64;91.89;100444.22;5007397;28;20054;-78
2023/07/11 04:48:50;;;;;;;10.02;5.18;;;;;;;19.88;91.52;100475.25;4986138;28;20042;-78
2023/07/11 04:51:17;;;;;;;7.55;5.00;;;;;;;19.77;91.87;100440.38;4984776;28;20066;-77
2023/07/11 04:53:44;;;;;;;9.25;5.78;;;;;;;19.95;91.23;100467.53;4992259;28;20552;-78
2023/07/11 04:56:11;;;;;;;7.63;4.90;;;;;;;19.88;91.33;100459.13;4995239;28;20503;-77
2023/07/11 04:58:38;;;;;;;7.82;5.38;;;;;;;19.98;91.68;100469.09;4986147;28;20042;-78
2023/07/11 05:01:11;;;;;;;9.35;4.80;;;;;;;20.03;91.54;100466.84;4990580;28;20085;-78
2023/07/11 05:03:37;;;;;;;8.43;5.22;;;;;;;20.07;91.45;100463.78;5013126;28;20403;-78
2023/07/11 05:06:05;;;;;;;7.20;5.00;;;;;;;20.07;91.33;100463.78;4990588;28;20101;-79
2023/07/11 05:08:33;;;;;;;9.02;5.03;;;;;;;20.24;91.47;100470.41;4987099;28;20046;-78
2023/07/11 05:11:07;;;;;;;9.30;4.93;;;;;;;20.37;89.65;100463.00;4998867;28;20149;-77
2023/07/11 05:13:34;;;;;;;7.25;4.90;;;;;;;20.11;89.44;100411.47;4985758;28;20061;-77
2023/07/11 05:16:06;;;;;;;10.13;5.72;;;;;;;20.46;89.00;100469.44;4985774;28;20053;-78
2023/07/11 05:18:40;;;;;;;8.00;5.28;;;;;;;20.20;88.12;100424.09;4998496;28;20050;-79
2023/07/11 05:21:12;;;;;;;9.18;5.45;;;;;;;20.49;88.63;100469.16;4981334;28;20048;-78
2023/07/11 05:23:39;;;;;;;7.18;4.55;;;;;;;20.61;88.90;100468.09;4986676;28;20046;-77
2023/07/11 05:26:07;;;;;;;9.52;4.90;;;;;;;20.58;87.47;100436.94;4990551;28;20467;-78
2023/07/11 05:28:34;;;;;;;7.60;5.25;;;;;;;20.88;86.41;100460.28;4991103;28;20042;-78
2023/07/11 05:31:04;;;;;;;7.30;5.00;;;;;;;20.95;86.24;100464.13;4982849;28;20575;-78
2023/07/11 05:33:31;;;;;;;7.00;4.90;;;;;;;21.02;86.24;100459.03;4982329;28;20054;-77
2023/07/11 05:38:54;;;;;;;7.90;5.20;;;;;;;21.17;85.64;100443.34;4994078;28;20072;-79
2023/07/11 05:41:21;;;;;;;7.68;4.78;;;;;;;21.18;84.74;100432.44;4976944;28;20057;-75
2023/07/11 05:43:48;;;;;;;7.80;4.97;;;;;;;21.34;84.48;100451.66;4992496;28;20506;-78
2023/07/11 05:46:15;;;;;;;7.72;5.10;;;;;;;21.37;84.77;100438.88;4991186;28;20042;-78
2023/07/11 05:48:41;;;;;;;7.03;4.78;;;;;;;21.51;83.83;100441.16;5005176;28;20052;-76
2023/07/11 05:51:12;;;;;;;6.35;4.82;;;;;;;21.60;84.64;100445.69;4986217;28;20047;-78
2023/07/11 05:53:39;;;;;;;;;;;;;;;21.67;83.92;100436.06;4990639;28;20465;-78
2023/07/11 05:56:06;;;;;;;8.07;5.70;;;;;;;21.59;82.05;100423.28;4986544;28;20000;-77
2023/07/11 05:58:34;;;;;;;9.07;5.38;;;;;;;21.75;82.26;100441.59;4988387;28;20038;-77
2023/07/11 06:01:03;;;;;;;8.65;5.50;;;;;;;21.75;82.25;100419.16;4980117;28;20058;-79
2023/07/11 06:03:31;;;;;;;10.30;5.28;;;;;;;21.99;80.34;100436.66;5003488;28;20213;-77
2023/07/11 06:06:01;;;;;;;8.90;5.43;;;;;;;22.00;80.41;100440.19;4989636;28;20293;-78
2023/07/11 06:08:31;;;;;;;7.68;5.35;;;;;;;21.84;80.60;100411.09;4989598;28;20050;-78
2023/07/11 06:11:01;;;;;;;13.35;6.72;;;;;;;21.66;79.84;100377.78;4977999;28;20098;-79
2023/07/11 06:13:29;;;;;;;;;;;;;;;22.04;80.56;100428.94;4982217;28;20141;-76
2023/07/11 06:16:07;;;;;;;11.95;5.57;;;;;;;22.10;80.24;100421.28;4987646;28;20029;-78
2023/07/11 06:18:36;;;;;;;9.45;5.53;;;;;;;22.10;80.32;100410.50;5000610;28;20047;-79
2023/07/11 06:21:05;;;;;;;10.18;5.28;;;;;;;22.14;80.99;100414.63;5007707;28;20094;-76
2023/07/11 06:23:32;;;;;;;13.30;5.38;;;;;;;22.23;79.26;100411.03;4995090;28;20044;-77
2023/07/11 06:25:58;;;;;;;9.10;5.10;;;;;;;22.43;79.13;100401.88;4987906;28;20046;-78
2023/07/11 06:28:26;;;;;;;8.90;5.05;;;;;;;22.71;77.00;100410.84;4984039;28;20043;-77
2023/07/11 06:30:58;;;;;;;8.70;4.85;;;;;;;23.17;74.82;100417.16;4980388;28;20046;-77
2023/07/11 06:33:25;;;;;;;11.02;4.90;;;;;;;23.67;72.06;100412.13;4998410;28;20133;-78
2023/07/11 06:35:52;;;;;;;9.43;4.78;;;;;;;23.98;70.99;100394.44;4984037;28;20737;-77
2023/07/11 06:38:19;;;;;;;10.80;5.00;;;;;;;24.38;69.85;100390.34;4997649;28;20056;-77
2023/07/11 06:40:48;;;;;;;12.30;5.07;;;;;;;24.80;65.44;100393.94;4976570;28;20058;-77
2023/07/11 06:43:15;;;;;;;9.15;4.75;;;;;;;24.93;66.58;100388.03;5000552;28;20052;-77
2023/07/11 06:45:47;;;;;;;8.70;4.60;;;;;;;25.22;62.02;100371.38;4984301;28;20046;-78
2023/07/11 06:48:16;;;;;;;12.18;4.82;;;;;;;25.76;61.57;100398.91;5003921;28;20071;-81
2023/07/11 06:50:52;;;;;;;8.73;4.85;;;;;;;26.07;65.32;100391.75;5006893;28;20054;-81
2023/07/11 06:53:21;;;;;;;9.63;5.40;;;;;;;26.26;62.53;100392.41;5007371;28;20077;-80
2023/07/11 06:55:51;;;;;;;11.60;5.20;;;;;;;26.21;59.42;100371.22;4995119;28;20074;-78
2023/07/11 06:58:18;;;;;;;13.25;5.03;;;;;;;26.15;60.03;100386.31;4989956;28;20050;-78
2023/07/11 07:00:53;;;;;;;9.38;4.88;;;;;;;26.00;62.62;100371.75;4985923;28;20046;-77
2023/07/11 07:03:21;;;;;;;10.75;5.22;;;;;;;26.20;58.14;100370.34;5017648;28;20074;-78
2023/07/11 07:05:49;;;;;;;12.48;5.60;;;;;;;26.50;60.98;100378.78;5004238;28;20475;-77
2023/07/11 07:08:16;;;;;;;11.02;5.40;;;;;;;26.31;58.08;100357.47;4994834;28;20046;-78
2023/07/11 07:10:45;;;;;;;8.70;4.97;;;;;;;26.34;61.07;100373.41;4987582;28;20054;-78
2023/07/11 07:13:12;;;;;;;13.50;6.03;;;;;;;26.35;56.66;100348.81;4982998;28;20042;-78
2023/07/11 07:15:40;;;;;;;10.27;5.85;;;;;;;26.62;54.26;100328.47;5000857;28;20069;-82
2023/07/11 07:18:07;;;;;;;9.75;5.78;;;;;;;26.97;56.73;100369.78;4996016;28;20050;-79
2023/07/11 07:20:35;;;;;;;12.13;5.60;;;;;;;26.48;54.91;100266.78;4987798;28;20078;-80
2023/07/11 07:23:18;;;;;;;7.68;4.75;;;;;;;26.88;54.41;100292.88;4993915;28;20046;-80
2023/07/11 07:25:53;;;;;;;12.40;5.82;;;;;;;27.58;52.86;100356.13;4985524;28;20105;-77
2023/07/11 07:28:20;;;;;;;9.40;5.40;;;;;;;27.84;52.78;100342.13;4988399;28;20070;-80
2023/07/11 07:30:51;;;;;;;6.78;5.15;;;;;;;28.25;50.13;100355.34;4991966;28;20053;-80
2023/07/11 07:33:19;;;;;;;10.30;5.82;;;;;;;28.48;48.87;100338.91;4987912;28;20254;-79
2023/07/11 07:35:46;;;;;;;11.38;5.90;;;;;;;28.26;47.64;100259.00;5010835;28;20081;-79
2023/07/11 07:38:12;;;;;;;8.20;5.38;;;;;;;28.84;46.37;100317.16;5015873;28;20113;-79
2023/07/11 07:40:40;;;;;;;12.15;5.95;;;;;;;29.26;44.13;100349.09;4993244;28;20141;-79
2023/07/11 07:43:07;;;;;;;9.60;5.90;;;;;;;29.32;47.55;100351.88;4990433;28;20062;-79
2023/07/11 07:45:33;;;;;;;8.95;5.90;;;;;;;29.44;45.09;100346.75;4999460;28;20046;-79
2023/07/11 07:48:00;;;;;;;10.80;6.30;;;;;;;29.11;45.85;100271.97;5026115;28;20054;-79
2023/07/11 07:50:27;;;;;;;10.75;5.82;;;;;;;29.19;42.97;100343.56;5014664;28;20050;-80
2023/07/11 07:52:54;;;;;;;8.95;5.82;;;;;;;28.27;44.31;100337.78;4992702;28;20116;-80
2023/07/11 07:55:20;;;;;;;8.73;5.63;;;;;;;27.79;45.26;100302.88;4995868;28;20058;-80
2023/07/11 07:57:47;;;;;;;7.50;5.68;;;;;;;27.95;44.39;100302.72;4995149;28;20054;-79
2023/07/11 08:00:14;;;;;;;8.32;5.20;;;;;;;28.38;44.88;100319.25;4992232;28;20070;-80
2023/07/11 08:02:43;;;;;;;7.60;5.03;;;;;;;28.93;41.74;100295.06;4989021;28;20106;-78
2023/07/11 08:05:12;;;;;;;6.60;4.75;;;;;;;29.54;38.68;100313.72;4992721;28;22309;-80
2023/07/11 08:07:39;;;;;;;7.07;4.50;;;;;;;29.71;37.81;100265.97;5008165;28;20098;-81
2023/07/11 08:10:07;;;;;;;5.40;4.88;;;;;;;30.21;38.35;100338.59;4993584;28;20049;-80
2023/07/11 08:12:34;;;;;;;7.50;4.82;;;;;;;29.39;39.75;100270.13;4984808;28;20538;-80
2023/07/11 08:15:03;;;;;;;6.57;5.20;;;;;;;28.85;41.27;100313.38;4990544;28;20133;-79
2023/07/11 08:17:30;;;;;;;7.68;5.45;;;;;;;28.28;42.04;100300.50;5006419;28;20105;-80
2023/07/11 08:19:58;;;;;;;6.45;5.53;;;;;;;28.62;42.85;100313.53;5006828;28;20101;-78
2023/07/11 08:22:25;;;;;;;6.82;4.80;;;;;;;28.80;41.59;100226.78;5016054;28;20043;-80
2023/07/11 08:24:51;;;;;;;5.88;4.82;;;;;;;29.89;40.18;100307.28;5021706;28;20049;-79
2023/07/11 08:27:18;;;;;;;5.72;4.85;;;;;;;30.05;39.91;100289.75;5007168;28;20110;-79
2023/07/11 08:29:46;;;;;;;7.05;4.97;;;;;;;30.31;38.19;100284.44;5010104;28;20042;-79
2023/07/11 08:32:14;;;;;;;13.30;5.22;;;;;;;30.07;38.31;100216.66;5020321;28;20077;-80
2023/07/11 08:34:41;;;;;;;6.35;4.65;;;;;;;30.37;38.01;100265.56;5029655;28;20046;-79
2023/07/11 08:37:09;;;;;;;8.43;5.18;;;;;;;30.45;38.16;100266.22;5004638;28;20129;-79
2023/07/11 08:39:37;;;;;;;7.75;4.93;;;;;;;30.70;37.39;100293.88;5007166;28;20043;-81
2023/07/11 08:42:12;;;;;;;8.70;5.30;;;;;;;30.64;36.20;100270.94;5005227;28;20120;-79
2023/07/11 08:44:48;;;;;;;5.45;4.95;;;;;;;30.48;36.76;100219.34;5023925;28;20057;-80
2023/07/11 08:47:23;;;;;;;5.68;4.85;;;;;;;30.63;36.80;100214.59;5003912;28;20082;-80
2023/07/11 08:50:01;;;;;;;9.77;4.97;;;;;;;31.08;36.66;100272.31;5005391;28;20039;-82
2023/07/11 08:52:30;;;;;;;5.90;5.20;;;;;;;31.15;36.00;100269.63;4999098;28;20109;-81
2023/07/11 08:55:16;;;;;;;8.43;4.80;;;;;;;31.24;36.27;100269.19;5006560;28;20113;-80
2023/07/11 08:57:53;;;;;;;7.10;5.25;;;;;;;31.17;35.78;100234.69;4999745;28;20465;-79
2023/07/11 09:00:23;;;;;;;7.47;4.82;;;;;;;31.21;35.17;100255.09;5004242;28;20061;-79
2023/07/11 09:03:24;;;;;;;6.90;4.60;;;;;;;31.29;35.08;100261.22;5005982;28;20047;-80
2023/07/11 09:06:02;;;;;;;5.57;4.57;;;;;;;30.48;36.26;100252.16;5014505;28;20121;-80
2023/07/11 09:08:31;;;;;;;6.50;4.93;;;;;;;30.11;36.41;100252.59;4997077;28;20058;-80
2023/07/11 09:11:25;;;;;;;8.40;5.03;;;;;;;29.75;36.75;100255.53;4998973;28;20061;-81
2023/07/11 09:14:25;;;;;;;10.20;4.70;;;;;;;29.74;37.95;100242.91;5006217;28;20785;-80
2023/07/11 09:17:04;;;;;;;6.13;4.65;;;;;;;30.28;37.02;100251.22;5008476;28;20411;-80
2023/07/11 09:19:53;;;;;;;7.57;4.75;;;;;;;30.67;35.76;100234.16;4994735;28;20066;-78
2023/07/11 09:22:46;;;;;;;5.15;4.60;;;;;;;30.71;36.06;100199.88;4996589;28;20053;-80
2023/07/11 09:25:19;;;;;;;7.15;4.57;;;;;;;30.75;35.34;100228.50;4996575;28;20046;-79
2023/07/11 09:27:51;;;;;;;6.80;4.40;;;;;;;30.58;35.05;100210.78;5005152;28;20110;-77
2023/07/11 09:30:37;;;;;;;5.80;4.30;;;;;;;30.40;35.84;100226.88;4993583;28;20121;-77
2023/07/11 09:33:14;;;;;;;6.50;4.55;;;;;;;30.30;35.55;100217.19;4990480;28;20042;-80
2023/07/11 09:35:43;;;;;;;5.53;4.10;;;;;;;29.77;35.44;100144.22;4998438;28;20042;-79
2023/07/11 09:38:16;;;;;;;;;;;;;;;30.12;35.61;100219.63;5021424;28;20046;-79
2023/07/11 09:41:09;;;;;;;5.57;4.03;;;;;;;30.12;35.95;100195.06;4993335;28;19980;-81
2023/07/11 09:43:35;;;;;;;5.07;4.22;;;;;;;30.20;35.01;100156.66;4994185;28;20134;-78
2023/07/11 09:46:09;;;;;;;5.43;3.85;;;;;;;30.79;35.42;100205.16;5003907;28;20046;-80
2023/07/11 09:48:39;;;;;;;4.53;3.72;;;;;;;30.76;33.97;100156.38;5023195;28;20054;-80
2023/07/11 09:51:46;;;;;;;6.57;4.27;;;;;;;31.09;33.66;100171.94;5020038;28;20042;-78
2023/07/11 09:54:23;;;;;;;5.45;4.43;;;;;;;30.91;34.17;100170.69;4946245;29;20047;-80
2023/07/11 09:56:50;;;;;;;5.72;4.20;;;;;;;30.76;34.37;100163.72;4992880;28;20043;-79
2023/07/11 09:59:19;;;;;;;5.35;4.07;;;;;;;30.69;35.09;100137.22;5015278;28;20051;-80
2023/07/11 10:01:55;;;;;;;6.95;4.07;;;;;;;31.07;34.68;100195.94;5007789;28;20065;-79
2023/07/11 10:04:24;;;;;;;6.57;3.90;;;;;;;30.61;34.17;100122.94;5006343;28;20081;-78
2023/07/11 10:06:58;;;;;;;8.55;4.25;;;;;;;30.54;34.28;100171.22;5005500;28;20075;-80
2023/07/11 10:09:42;;;;;;;6.82;4.18;;;;;;;30.35;35.64;100137.34;5000099;28;20081;-80
2023/07/11 10:12:23;;;;;;;4.80;4.07;;;;;;;30.89;34.90;100169.19;4997668;28;20078;-79
2023/07/11 10:14:57;;;;;;;7.25;4.50;;;;;;;31.25;34.55;100177.88;5001063;28;20066;-79
2023/07/11 10:17:33;;;;;;;6.47;4.40;;;;;;;30.96;34.62;100105.28;5002554;28;20054;-79
2023/07/11 10:20:04;;;;;;;5.53;4.10;;;;;;;31.31;34.74;100137.88;5004286;28;20053;-78
2023/07/11 10:22:48;;;;;;;6.00;4.47;;;;;;;31.07;34.54;100089.28;5011376;28;20069;-78
2023/07/11 10:25:21;;;;;;;5.53;4.03;;;;;;;31.71;35.01;100155.09;5003845;28;20043;-82
2023/07/11 10:27:54;;;;;;;6.50;4.28;;;;;;;31.79;34.49;100134.84;5002819;28;20069;-79
2023/07/11 10:30:25;;;;;;;8.30;5.20;;;;;;;31.89;34.12;100147.03;5004820;28;20085;-79
2023/07/11 10:33:05;;;;;;;7.25;4.10;;;;;;;31.72;35.46;100132.97;4997443;28;20046;-80
2023/07/11 10:35:55;;;;;;;6.45;4.20;;;;;;;31.89;35.57;100148.91;5006378;28;20050;-79
2023/07/11 10:38:45;;;;;;;10.02;4.65;;;;;;;32.05;34.03;100129.25;5008576;28;20049;-80
2023/07/11 10:41:20;;;;;;;8.05;5.10;;;;;;;31.89;33.90;100088.66;5012050;28;20050;-79
2023/07/11 10:43:51;;;;;;;8.75;4.13;;;;;;;31.95;34.04;100128.88;4996777;28;20050;-79
2023/07/11 10:46:35;;;;;;;4.85;4.20;;;;;;;31.99;35.20;100110.94;4998919;28;20121;-80
2023/07/11 10:49:08;;;;;;;5.45;3.92;;;;;;;31.91;34.97;100135.84;5013077;28;20042;-80
2023/07/11 10:51:43;;;;;;;6.70;4.40;;;;;;;31.73;36.39;100131.91;5002433;28;20069;-80
2023/07/11 10:54:24;;;;;;;7.38;4.10;;;;;;;31.26;36.05;100055.59;4996570;28;20105;-80
2023/07/11 10:57:00;;;;;;;6.55;4.50;;;;;;;31.77;36.12;100117.78;5001454;28;20053;-79
2023/07/11 10:59:32;;;;;;;6.97;4.70;;;;;;;31.55;36.05;100082.47;5000341;28;20042;-79
2023/07/11 11:02:13;;;;;;;8.95;5.20;;;;;;;31.85;36.57;100101.94;4998987;28;20042;-82
2023/07/11 11:04:58;;;;;;;8.50;4.95;;;;;;;32.15;36.07;100107.69;5009836;28;20039;-80
2023/07/11 11:07:37;;;;;;;5.20;4.70;;;;;;;32.45;35.77;100109.88;4995249;28;20157;-80
2023/07/11 11:10:31;;;;;;;7.15;4.95;;;;;;;32.68;35.97;100100.00;5000736;28;20057;-83
2023/07/11 11:13:22;;;;;;;7.35;4.63;;;;;;;32.84;36.57;100093.16;5000432;28;20027;-79
2023/07/11 11:16:22;;;;;;;5.57;4.53;;;;;;;32.92;35.82;100072.81;5033437;28;20042;-78
2023/07/11 11:19:17;;;;;;;6.72;4.60;;;;;;;32.43;36.33;100088.16;4995581;28;20057;-81
2023/07/11 11:21:56;;;;;;;5.25;4.75;;;;;;;32.45;36.32;100080.56;5002708;28;20038;-80
2023/07/11 11:24:37;;;;;;;7.00;5.03;;;;;;;32.04;36.91;100042.66;5010648;28;20042;-79
2023/07/11 11:27:36;;;;;;;7.03;4.97;;;;;;;32.18;37.11;100066.16;5013226;28;20121;-81
2023/07/11 11:30:41;;;;;;;5.63;5.03;;;;;;;31.87;38.45;100060.66;4991249;28;20417;-80
2023/07/11 11:33:29;;;;;;;6.82;5.57;;;;;;;32.19;39.07;100067.88;4971216;28;20061;-79
2023/07/11 11:36:21;;;;;;;7.45;5.00;;;;;;;32.45;37.57;100058.63;4993499;28;20047;-77
2023/07/11 11:39:10;;;;;;;7.18;5.40;;;;;;;32.35;37.78;100039.94;5004740;28;20057;-79
2023/07/11 11:41:43;;;;;;;8.10;4.95;;;;;;;32.57;36.97;100045.06;5020137;28;20027;-79
2023/07/11 11:44:17;;;;;;;7.82;5.25;;;;;;;32.58;36.61;99997.41;5016625;28;20043;-79